CheckWX is a tool to help pilots better visualize weather data.  It is not intended as a substitute for an official pre-flight weather briefing.

06:48:41 UTC

PAMM METAR
Metlakatla Seaplane Base
Metlakatla, Alaska, USA
Current

53 mins ago

PAMM 250556Z AUTO 16004KT 10SM SCT037 OVC090 09/07 A3002 RMK AO2 SLP157 T00940067 10133 20094 55001 $
Observed
May-25 @ 05:56 UTC
Wind
  • 160° at 4 KTS
Visibility
Flight Rules
VFR
Cloud Levels
  • Scattered at 3,700' AGL
  • Overcast at 9,000' AGL
Temperature
C / 48°F
Dewpoint
C / 45°F
Humidity
87%
Altimeter
30.02" Hg
Pressure
1016.62 hPa
Previous

2 hours ago

PAMM 250456Z AUTO 14008KT 10SM BKN041 OVC090 09/07 A3002 RMK AO2 SLP156 T00940067 $
Observed
May-25 @ 04:56 UTC
Wind
  • 140° at 8 KTS
Visibility
Flight Rules
VFR
Cloud Levels
  • Broken at 4,100' AGL
  • Overcast at 9,000' AGL
Temperature
C / 48°F
Dewpoint
C / 45°F
Humidity
87%
Altimeter
30.02" Hg
Pressure
1016.62 hPa
Previous

3 hours ago

PAMM 250356Z AUTO 15009KT 10SM OVC039 11/07 A3001 RMK AO2 SLP155 T01060067 $
Observed
May-25 @ 03:56 UTC
Wind
  • 150° at 9 KTS
Visibility
Flight Rules
VFR
Cloud Levels
  • Overcast at 3,900' AGL
Temperature
11°C / 52°F
Dewpoint
C / 45°F
Humidity
77%
Altimeter
30.01" Hg
Pressure
1016.22 hPa